Condor Express — 9V5373 — position and weather

sailwx.info

Track history (hours):
 
Tides and Currents Weather Stations Pressure Air Temp Water Temp Dewpoint Dewpoint Depression Visibility Wind Speed Wind Dir Waves Ship Positions

Condor Express

Operator: Condor Marine Services

Last reported at 2017-Apr-29 05:20 UTC. Time now 2017-Apr-29 13:33 UTC.
Position N 39°59' E 026°01'.

Length 235 m; draft 14.1 m.

Type: Cargo ship. MMSI: 563014500.

Date/timePositionNaut miles runAvg speedWind from/ knotsBaromVisibWave heightAir tempDewpointWater temp
2017-Apr-29 05:20N 39°59' E 026°01'3 8.3
2017-Apr-29 04:58N 39°57' E 025°58'2 3.8
2017-Apr-29 04:30N 39°55' E 025°56'0 0.5
2017-Apr-29 04:00N 39°55' E 025°56'0 0.9
2017-Apr-29 03:30N 39°55' E 025°56'1 3.0
2017-Apr-29 03:00N 39°54' E 025°55'5 9.8
2017-Apr-29 02:29N 39°50' E 025°50'511.3
2017-Apr-29 02:00N 39°45' E 025°48'11511.2
2017-Apr-28 15:44N 37°50' E 025°43'811.8
2017-Apr-28 15:05N 37°42' E 025°45'111.8
2017-Apr-28 15:00N 37°41' E 025°46'1312.1
2017-Apr-28 13:57N 37°30' E 025°51'511.9
2017-Apr-28 13:30N 37°25' E 025°53'45411.3
2017-Apr-26 21:18N 31°45' E 031°59'2311.0
2017-Apr-26 19:14N 31°30' E 032°19'210.7
2017-Apr-26 19:00N 31°29' E 032°21'5 9.2
2017-Apr-26 18:30N 31°25' E 032°24'611.1
2017-Apr-26 18:00N 31°20' E 032°22'710.0
2017-Apr-26 17:21N 31°13' E 032°21'9 6.5
2017-Apr-26 16:00N 31°05' E 032°19'  
Track history (hours):
 
Tides and Currents Weather Stations Pressure Air Temp Water Temp Dewpoint Dewpoint Depression Visibility Wind Speed Wind Dir Waves Ship Positions

Condor Express

Operator: Condor Marine Services

Last reported at 2017-Apr-29 05:20 UTC. Time now 2017-Apr-29 13:33 UTC.
Position N 39°59' E 026°01'.

Length 235 m; draft 14.1 m.

Type: Cargo ship. MMSI: 563014500.

Date/timePositionNaut miles runAvg speedWind from/ knotsBaromVisibWave heightAir tempDewpointWater temp
2017-Apr-29 05:20N 39°59' E 026°01'3 8.3
2017-Apr-29 04:58N 39°57' E 025°58'2 3.8
2017-Apr-29 04:30N 39°55' E 025°56'0 0.5
2017-Apr-29 04:00N 39°55' E 025°56'0 0.9
2017-Apr-29 03:30N 39°55' E 025°56'1 3.0
2017-Apr-29 03:00N 39°54' E 025°55'5 9.8
2017-Apr-29 02:29N 39°50' E 025°50'511.3
2017-Apr-29 02:00N 39°45' E 025°48'11511.2
2017-Apr-28 15:44N 37°50' E 025°43'811.8
2017-Apr-28 15:05N 37°42' E 025°45'111.8
2017-Apr-28 15:00N 37°41' E 025°46'1312.1
2017-Apr-28 13:57N 37°30' E 025°51'511.9
2017-Apr-28 13:30N 37°25' E 025°53'45411.3
2017-Apr-26 21:18N 31°45' E 031°59'2311.0
2017-Apr-26 19:14N 31°30' E 032°19'210.7
2017-Apr-26 19:00N 31°29' E 032°21'5 9.2
2017-Apr-26 18:30N 31°25' E 032°24'611.1
2017-Apr-26 18:00N 31°20' E 032°22'710.0
2017-Apr-26 17:21N 31°13' E 032°21'9 6.5
2017-Apr-26 16:00N 31°05' E 032°19'  

Dump ship's entire track history